Terminal Aerodrome Forecast
Issued by NWS Charleston, WV

Current Version | Previous Version | Graphics & Text | Print | Product List | Glossary On
Versions: 1 2 3 4 5 6 7 8 9 10 11 12 13 14 15 16 17 18 19 20 21 22 23
000
FTUS41 KRLX 010500
TAFBKW
TAF
KBKW 010540Z 0106/0206 01006KT 6SM -RA FEW009 BKN028 OVC045
     FM010800 33006KT 5SM -SHRA BR SCT009 OVC015
     FM011500 34005KT P6SM BKN018
     FM012100 34008KT P6SM BKN040
     FM020300 VRB03KT P6SM SCT045=

USA.gov is the U.S. government's official web portal to all federal, state and local government web resources and services.